Time,TemperatureF,DewpointF,PressureIn,WindDirection,WindDirectionDegrees,WindSpeedMPH,WindSpeedGustMPH,Humidity,HourlyPrecipIn,Conditions,Clouds,dailyrainin,SolarRadiationWatts/m^2,SoftwareType,DateUTC
2013-04-28 00:00:00,58.3,53.5,30.13,NE,44,5.0,10.0,84,0.00,,CLR,0.16,0.00,VWS V14.01,2013-04-28 04:00:00,
2013-04-28 00:01:00,58.4,53.6,30.13,NE,38,6.0,9.0,84,0.00,,OVC070,0.00,0.00,VWS V14.01,2013-04-28 04:01:00,
2013-04-28 00:06:00,58.6,53.8,30.13,North,5,7.0,9.0,84,0.00,,OVC050,0.00,0.00,VWS V14.01,2013-04-28 04:06:00,
2013-04-28 00:11:00,58.6,53.8,30.13,NW,314,5.0,14.0,84,0.00,,OVC050,0.00,0.00,VWS V14.01,2013-04-28 04:11:00,
2013-04-28 00:16:00,58.3,53.2,30.14,ENE,69,4.0,14.0,83,0.01,,OVC050,0.01,0.00,VWS V14.01,2013-04-28 04:16:00,
2013-04-28 00:21:00,58.3,53.5,30.14,NE,46,5.0,14.0,84,0.03,,OVC050,0.03,0.00,VWS V14.01,2013-04-28 04:21:00,
2013-04-28 00:26:00,57.8,52.0,30.14,ENE,65,3.0,14.0,81,0.04,,OVC050,0.04,0.00,VWS V14.01,2013-04-28 04:26:00,
2013-04-28 00:30:00,58.6,52.5,30.13,NNE,28,5.0,8.0,80,0.00,,CLR,0.00,0.00,VWS V14.01,2013-04-28 04:30:00,
2013-04-28 00:31:00,57.6,52.8,30.14,NE,46,4.0,5.0,84,0.04,,OVC050,0.04,0.00,VWS V14.01,2013-04-28 04:31:00,
2013-04-28 00:36:00,57.5,52.4,30.14,NE,46,5.0,7.0,83,0.04,,OVC050,0.04,0.00,VWS V14.01,2013-04-28 04:36:00,
2013-04-28 00:41:00,57.5,53.0,30.14,NE,45,4.0,7.0,85,0.04,,OVC050,0.04,0.00,VWS V14.01,2013-04-28 04:41:00,
2013-04-28 00:46:00,57.6,52.8,30.14,North,360,6.0,8.0,84,0.04,,OVC050,0.04,0.00,VWS V14.01,2013-04-28 04:46:00,
2013-04-28 00:51:00,57.6,52.8,30.14,NNE,20,7.0,10.0,84,0.04,,OVC050,0.04,0.00,VWS V14.01,2013-04-28 04:51:00,
2013-04-28 00:56:00,57.6,52.5,30.14,NNE,22,6.0,10.0,83,0.04,,OVC050,0.04,0.00,VWS V14.01,2013-04-28 04:56:00,
2013-04-28 01:00:00,58.4,53.6,30.13,NE,36,9.0,10.0,84,0.00,,CLR,0.00,0.00,VWS V14.01,2013-04-28 05:00:00,
2013-04-28 01:01:00,57.6,52.8,30.14,North,360,5.0,7.0,84,0.05,,-RA,0.05,0.00,VWS V14.01,2013-04-28 05:01:00,
2013-04-28 01:06:00,57.8,52.7,30.14,NE,51,7.0,7.0,83,0.05,,-RA,0.05,0.00,VWS V14.01,2013-04-28 05:06:00,
2013-04-28 01:11:00,57.8,53.0,30.14,NNE,30,6.0,9.0,84,0.05,,-RA,0.05,0.00,VWS V14.01,2013-04-28 05:11:00,
2013-04-28 01:16:00,57.8,52.3,30.14,North,9,3.0,10.0,82,0.05,,-RA,0.05,0.00,VWS V14.01,2013-04-28 05:16:00,
2013-04-28 01:21:00,58.0,53.2,30.14,NNE,15,3.0,10.0,84,0.05,,-RA,0.05,0.00,VWS V14.01,2013-04-28 05:21:00,
2013-04-28 01:26:00,58.0,52.9,30.14,NE,39,6.0,10.0,83,0.05,,-RA,0.05,0.00,VWS V14.01,2013-04-28 05:26:00,
2013-04-28 01:30:00,57.6,52.8,30.14,ENE,63,4.0,14.0,84,0.04,,CLR,0.04,0.00,VWS V14.01,2013-04-28 05:30:00,
2013-04-28 01:31:00,57.8,52.7,30.13,NE,55,7.0,7.0,83,0.01,,-RA,0.05,0.00,VWS V14.01,2013-04-28 05:31:00,
2013-04-28 01:36:00,57.8,52.7,30.13,North,11,4.0,9.0,83,0.01,,-RA,0.05,0.00,VWS V14.01,2013-04-28 05:36:00,
2013-04-28 01:41:00,57.8,53.0,30.13,NNE,23,4.0,10.0,84,0.01,,-RA,0.05,0.00,VWS V14.01,2013-04-28 05:41:00,
2013-04-28 01:46:00,57.8,52.3,30.14,ENE,57,3.0,10.0,82,0.01,,-RA,0.05,0.00,VWS V14.01,2013-04-28 05:46:00,
2013-04-28 01:51:00,57.8,52.7,30.14,NE,53,3.0,10.0,83,0.01,,-RA,0.05,0.00,VWS V14.01,2013-04-28 05:51:00,
2013-04-28 01:56:00,57.6,51.8,30.14,NNE,30,5.0,10.0,81,0.01,,-RA,0.05,0.00,VWS V14.01,2013-04-28 05:56:00,
2013-04-28 02:00:00,57.6,52.8,30.14,NNE,22,5.0,10.0,84,0.05,,CLR,0.05,0.00,VWS V14.01,2013-04-28 06:00:00,
2013-04-28 02:01:00,57.5,52.7,30.12,NE,51,1.0,2.0,84,0.01,,-RA,0.06,0.00,VWS V14.01,2013-04-28 06:01:00,
2013-04-28 02:06:00,57.3,52.5,30.12,NE,49,2.0,4.0,84,0.01,,-RA,0.06,0.00,VWS V14.01,2013-04-28 06:06:00,
2013-04-28 02:11:00,57.2,52.4,30.12,NNW,348,3.0,5.0,84,0.01,,-RA,0.06,0.00,VWS V14.01,2013-04-28 06:11:00,
2013-04-28 02:16:00,57.0,52.2,30.13,NNE,29,3.0,5.0,84,0.02,,-RA,0.07,0.00,VWS V14.01,2013-04-28 06:16:00,
2013-04-28 02:21:00,57.0,52.2,30.13,NE,49,3.0,5.0,84,0.03,,RA,0.08,0.00,VWS V14.01,2013-04-28 06:21:00,
2013-04-28 02:26:00,57.0,52.2,30.13,ENE,74,9.0,10.0,84,0.03,,RA,0.08,0.00,VWS V14.01,2013-04-28 06:26:00,
2013-04-28 02:30:00,57.8,52.7,30.13,NE,38,4.0,10.0,83,0.05,,CLR,0.05,0.00,VWS V14.01,2013-04-28 06:30:00,
2013-04-28 02:31:00,57.0,52.9,30.09,ENE,64,7.0,7.0,86,0.03,,RA,0.08,0.00,VWS V14.01,2013-04-28 06:31:00,
2013-04-28 02:36:00,56.9,53.1,30.09,ENE,61,6.0,9.0,87,0.04,,RA,0.09,0.00,VWS V14.01,2013-04-28 06:36:00,
2013-04-28 02:41:00,56.6,52.8,30.09,ENE,65,7.0,9.0,87,0.05,,RA,0.10,0.00,VWS V14.01,2013-04-28 06:41:00,
2013-04-28 02:46:00,56.2,52.7,30.08,North,360,6.0,9.0,88,0.06,,RA,0.11,0.00,VWS V14.01,2013-04-28 06:46:00,
2013-04-28 02:51:00,56.2,52.7,30.08,NNE,32,5.0,9.0,88,0.06,,RA,0.11,0.00,VWS V14.01,2013-04-28 06:51:00,
2013-04-28 02:56:00,56.0,52.8,30.08,NE,39,4.0,9.0,89,0.06,,RA,0.11,0.00,VWS V14.01,2013-04-28 06:56:00,
2013-04-28 03:00:00,57.5,52.4,30.12,NE,54,2.0,10.0,83,0.02,,CLR,0.06,0.00,VWS V14.01,2013-04-28 07:00:00,
2013-04-28 03:01:00,56.2,53.0,30.08,NNE,27,4.0,4.0,89,0.05,,-RA,0.11,0.00,VWS V14.01,2013-04-28 07:01:00,
2013-04-28 03:06:00,56.6,53.7,30.08,NNE,29,5.0,10.0,90,0.05,,-RA,0.11,0.00,VWS V14.01,2013-04-28 07:06:00,
2013-04-28 03:11:00,56.7,53.5,30.08,NNE,16,9.0,10.0,89,0.05,,-RA,0.11,0.00,VWS V14.01,2013-04-28 07:11:00,
2013-04-28 03:16:00,56.6,52.8,30.09,NNE,29,6.0,10.0,87,0.05,,-RA,0.11,0.00,VWS V14.01,2013-04-28 07:16:00,
2013-04-28 03:21:00,56.7,53.2,30.09,NNE,16,7.0,10.0,88,0.05,,-RA,0.11,0.00,VWS V14.01,2013-04-28 07:21:00,
2013-04-28 03:26:00,56.7,53.2,30.09,North,10,4.0,10.0,88,0.05,,-RA,0.11,0.00,VWS V14.01,2013-04-28 07:26:00,
2013-04-28 03:30:00,57.0,52.9,30.09,NE,54,7.0,10.0,86,0.03,,CLR,0.08,0.00,VWS V14.01,2013-04-28 07:30:00,
2013-04-28 03:31:00,56.7,53.5,30.10,NW,307,1.0,1.0,89,0.03,,-RA,0.11,0.00,VWS V14.01,2013-04-28 07:31:00,
2013-04-28 03:36:00,56.6,53.1,30.10,North,350,4.0,4.0,88,0.03,,-RA,0.11,0.00,VWS V14.01,2013-04-28 07:36:00,
2013-04-28 03:41:00,56.5,53.3,30.10,WSW,257,0.0,4.0,89,0.03,,-RA,0.11,0.00,VWS V14.01,2013-04-28 07:41:00,
2013-04-28 03:46:00,56.3,53.1,30.09,North,350,3.0,4.0,89,0.03,,-RA,0.11,0.00,VWS V14.01,2013-04-28 07:46:00,
2013-04-28 03:50:00,56.5,53.9,30.09,North,360,5.0,7.0,91,0.03,,-RA,0.11,0.00,VWS V14.01,2013-04-28 07:50:00,
2013-04-28 03:55:00,56.6,54.0,30.09,NE,42,6.0,7.0,91,0.05,,-RA,0.13,0.00,VWS V14.01,2013-04-28 07:55:00,
2013-04-28 04:00:00,56.6,53.4,30.09,NE,47,4.0,5.0,89,0.03,,-RA,0.14,0.00,VWS V14.01,2013-04-28 08:00:00,
2013-04-28 04:05:00,56.9,54.0,30.09,NE,53,4.0,6.0,90,0.04,,RA,0.15,0.00,VWS V14.01,2013-04-28 08:05:00,
2013-04-28 04:10:00,56.7,53.5,30.09,NE,46,3.0,6.0,89,0.04,,RA,0.15,0.00,VWS V14.01,2013-04-28 08:10:00,
2013-04-28 04:15:00,56.5,52.7,30.10,NE,41,3.0,6.0,87,0.04,,RA,0.15,0.00,VWS V14.01,2013-04-28 08:15:00,
2013-04-28 04:20:00,56.6,53.1,30.10,North,360,3.0,6.0,88,0.04,,-RA,0.15,0.00,VWS V14.01,2013-04-28 08:20:00,
2013-04-28 04:25:00,56.6,52.8,30.10,NE,41,4.0,7.0,87,0.04,,-RA,0.15,0.00,VWS V14.01,2013-04-28 08:25:00,
2013-04-28 04:30:00,56.6,53.1,30.10,NE,53,6.0,6.0,88,0.05,,-RA,0.16,0.00,VWS V14.01,2013-04-28 08:30:00,
2013-04-28 04:35:00,56.5,53.3,30.10,ENE,71,7.0,7.0,89,0.06,,-RA,0.17,0.00,VWS V14.01,2013-04-28 08:35:00,
2013-04-28 04:40:00,56.6,53.4,30.10,East,92,9.0,10.0,89,0.06,,,0.17,0.00,VWS V14.01,2013-04-28 08:40:00,
2013-04-28 04:45:00,56.5,53.3,30.09,East,88,5.0,10.0,89,0.06,,,0.17,0.00,VWS V14.01,2013-04-28 08:45:00,
2013-04-28 04:50:00,56.3,53.4,30.09,East,98,2.0,10.0,90,0.06,,,0.17,0.00,VWS V14.01,2013-04-28 08:50:00,
2013-04-28 04:55:00,56.3,53.4,30.09,East,97,9.0,10.0,90,0.06,,,0.17,0.00,VWS V14.01,2013-04-28 08:55:00,
2013-04-28 05:00:00,56.6,53.7,30.08,ENE,78,5.0,11.0,90,0.06,,-RA,0.17,0.00,VWS V14.01,2013-04-28 09:00:00,
2013-04-28 05:05:00,56.3,52.8,30.08,ENE,78,6.0,9.0,88,0.03,,-RA,0.17,0.00,VWS V14.01,2013-04-28 09:05:00,
2013-04-28 05:10:00,56.5,53.0,30.08,ENE,73,7.0,10.0,88,0.03,,-RA,0.17,0.00,VWS V14.01,2013-04-28 09:10:00,
2013-04-28 05:15:00,56.3,52.5,30.06,ENE,66,9.0,10.0,87,0.03,,-RA,0.17,0.00,VWS V14.01,2013-04-28 09:15:00,
2013-04-28 05:20:00,56.0,52.2,30.06,ENE,57,2.0,10.0,87,0.03,,-RA,0.17,0.00,VWS V14.01,2013-04-28 09:20:00,
2013-04-28 05:25:00,56.2,52.4,30.06,NNE,26,4.0,10.0,87,0.05,,-RA,0.19,0.00,VWS V14.01,2013-04-28 09:25:00,
2013-04-28 05:30:00,56.2,52.4,30.07,North,360,4.0,4.0,87,0.05,,-RA,0.21,0.00,VWS V14.01,2013-04-28 09:30:00,
2013-04-28 05:35:00,56.3,52.5,30.07,NE,43,6.0,9.0,87,0.05,,-RA,0.21,0.00,VWS V14.01,2013-04-28 09:35:00,
2013-04-28 05:40:00,56.2,52.1,30.07,ENE,66,2.0,9.0,86,0.07,,-RA,0.23,0.00,VWS V14.01,2013-04-28 09:40:00,
2013-04-28 05:45:00,55.9,51.8,30.06,East,79,6.0,9.0,86,0.07,,-RA,0.23,0.00,VWS V14.01,2013-04-28 09:45:00,
2013-04-28 05:50:00,55.9,52.4,30.06,NE,51,5.0,9.0,88,0.08,,-RA,0.24,0.00,VWS V14.01,2013-04-28 09:50:00,
2013-04-28 05:55:00,55.9,52.1,30.06,ENE,67,6.0,9.0,87,0.10,,-RA,0.26,0.00,VWS V14.01,2013-04-28 09:55:00,
2013-04-28 06:00:00,55.9,52.7,30.07,ENE,69,4.0,9.0,89,0.12,,-RA,0.28,0.00,VWS V14.01,2013-04-28 10:00:00,
2013-04-28 06:05:00,56.0,52.8,30.07,ENE,66,3.0,7.0,89,0.12,,-RA,0.29,0.00,VWS V14.01,2013-04-28 10:05:00,
2013-04-28 06:10:00,55.7,51.9,30.07,ENE,62,3.0,7.0,87,0.12,,-RA,0.29,0.00,VWS V14.01,2013-04-28 10:10:00,
2013-04-28 06:15:00,55.7,52.2,30.07,ENE,67,3.0,7.0,88,0.12,,-RA,0.29,0.00,VWS V14.01,2013-04-28 10:15:00,
2013-04-28 06:20:00,55.7,52.2,30.07,East,81,6.0,10.0,88,0.14,,-RA,0.31,0.00,VWS V14.01,2013-04-28 10:20:00,
2013-04-28 06:25:00,55.6,52.1,30.07,ENE,68,7.0,10.0,88,0.14,,-RA,0.31,0.00,VWS V14.01,2013-04-28 10:25:00,
2013-04-28 06:30:00,55.4,52.2,30.05,NE,52,7.0,7.0,89,0.11,,-RA,0.32,0.00,VWS V14.01,2013-04-28 10:30:00,
2013-04-28 06:35:00,55.6,52.7,30.05,NE,45,7.0,10.0,90,0.11,,-RA,0.32,0.00,VWS V14.01,2013-04-28 10:35:00,
2013-04-28 06:40:00,55.6,52.4,30.05,NE,35,7.0,10.0,89,0.12,,-RA,0.33,0.00,VWS V14.01,2013-04-28 10:40:00,
2013-04-28 06:45:00,55.6,52.7,30.05,NE,42,6.0,10.0,90,0.12,,-RA,0.33,0.00,VWS V14.01,2013-04-28 10:45:00,
2013-04-28 06:50:00,55.6,52.7,30.05,NNE,27,5.0,10.0,90,0.12,,-RA,0.33,0.00,VWS V14.01,2013-04-28 10:50:00,
2013-04-28 06:55:00,55.7,52.8,30.05,North,9,6.0,10.0,90,0.15,,-RA,0.36,0.00,VWS V14.01,2013-04-28 10:55:00,
2013-04-28 07:00:00,55.6,52.7,30.06,NNE,33,4.0,10.0,90,0.18,,-RA,0.39,0.00,VWS V14.01,2013-04-28 11:00:00,
2013-04-28 07:05:00,55.6,52.7,30.06,NE,44,4.0,7.0,90,0.15,,RA,0.43,0.00,VWS V14.01,2013-04-28 11:05:00,
2013-04-28 07:10:00,55.6,52.7,30.06,North,355,0.0,7.0,90,0.17,,RA,0.45,0.00,VWS V14.01,2013-04-28 11:10:00,
2013-04-28 07:15:00,55.4,52.5,30.08,NNE,13,4.0,10.0,90,0.19,,RA,0.47,0.00,VWS V14.01,2013-04-28 11:15:00,
2013-04-28 07:20:00,55.1,51.9,30.08,North,9,0.0,10.0,89,0.19,, +RA,0.47,0.00,VWS V14.01,2013-04-28 11:20:00,
2013-04-28 07:25:00,55.0,51.8,30.08,East,84,0.0,10.0,89,0.21,, +RA,0.49,0.00,VWS V14.01,2013-04-28 11:25:00,
2013-04-28 07:30:00,55.0,52.4,30.09,West,275,1.0,10.0,91,0.23,, +RA,0.51,0.00,VWS V14.01,2013-04-28 11:30:00,
2013-04-28 07:35:00,54.7,52.1,30.09,NW,305,0.0,4.0,91,0.22,, +RA,0.54,5.00,VWS V14.01,2013-04-28 11:35:00,
2013-04-28 07:40:00,54.4,51.8,30.09,WNW,296,0.0,4.0,91,0.23,, +RA,0.55,7.00,VWS V14.01,2013-04-28 11:40:00,
2013-04-28 07:45:00,54.4,52.4,30.09,WNW,298,0.0,4.0,93,0.24,, +RA,0.56,5.00,VWS V14.01,2013-04-28 11:45:00,
2013-04-28 07:50:00,54.4,52.4,30.09,West,273,0.0,4.0,93,0.25,, +RA,0.57,7.00,VWS V14.01,2013-04-28 11:50:00,
2013-04-28 07:55:00,54.2,52.2,30.09,West,273,0.0,4.0,93,0.25,, +RA,0.57,7.00,VWS V14.01,2013-04-28 11:55:00,
2013-04-28 08:00:00,54.5,52.8,30.08,West,273,0.0,4.0,94,0.25,, +RA,0.57,9.00,VWS V14.01,2013-04-28 12:00:00,
2013-04-28 08:05:00,54.5,52.5,30.08,East,85,4.0,5.0,93,0.18,,-RA,0.57,14.00,VWS V14.01,2013-04-28 12:05:00,
2013-04-28 08:10:00,54.5,52.2,30.08,East,87,4.0,5.0,92,0.18,,-RA,0.57,16.00,VWS V14.01,2013-04-28 12:10:00,
2013-04-28 08:15:00,54.5,51.9,30.08,NE,46,4.0,5.0,91,0.18,,-RA,0.57,14.00,VWS V14.01,2013-04-28 12:15:00,
2013-04-28 08:20:00,54.5,51.9,30.08,ENE,61,3.0,5.0,91,0.18,,-RA,0.57,12.00,VWS V14.01,2013-04-28 12:20:00,
2013-04-28 08:25:00,54.8,52.5,30.08,NE,35,4.0,6.0,92,0.18,,-RA,0.57,9.00,VWS V14.01,2013-04-28 12:25:00,
2013-04-28 08:30:00,54.7,52.4,30.08,NE,44,5.0,8.0,92,0.18,,-RA,0.57,12.00,VWS V14.01,2013-04-28 12:30:00,
2013-04-28 08:35:00,54.8,52.5,30.08,NE,38,6.0,9.0,92,0.08,,-RA,0.59,14.00,VWS V14.01,2013-04-28 12:35:00,
2013-04-28 08:40:00,54.7,52.1,30.08,NE,42,9.0,9.0,91,0.08,,-RA,0.59,12.00,VWS V14.01,2013-04-28 12:40:00,
2013-04-28 08:45:00,54.5,51.9,30.08,NE,54,6.0,9.0,91,0.08,,-RA,0.59,14.00,VWS V14.01,2013-04-28 12:45:00,
2013-04-28 08:50:00,54.7,52.4,30.08,NE,47,9.0,10.0,92,0.08,,-RA,0.59,14.00,VWS V14.01,2013-04-28 12:50:00,
2013-04-28 08:55:00,54.7,52.4,30.08,NE,43,4.0,11.0,92,0.08,,-RA,0.59,9.00,VWS V14.01,2013-04-28 12:55:00,
2013-04-28 09:00:00,54.8,52.5,30.08,NNE,23,8.0,11.0,92,0.09,,-RA,0.60,9.00,VWS V14.01,2013-04-28 13:00:00,
2013-04-28 09:05:00,54.7,52.4,30.08,NE,40,9.0,11.0,92,0.03,,-RA,0.60,12.00,VWS V14.01,2013-04-28 13:05:00,
2013-04-28 09:10:00,54.7,52.4,30.08,ENE,61,6.0,11.0,92,0.03,,-RA,0.60,12.00,VWS V14.01,2013-04-28 13:10:00,
2013-04-28 09:15:00,54.7,52.7,30.08,NE,48,7.0,11.0,93,0.04,,-RA,0.61,7.00,VWS V14.01,2013-04-28 13:15:00,
2013-04-28 09:20:00,54.7,52.7,30.08,NNE,22,9.0,13.0,93,0.04,,RA,0.61,7.00,VWS V14.01,2013-04-28 13:20:00,
2013-04-28 09:25:00,54.8,52.8,30.08,North,360,9.0,13.0,93,0.06,,RA,0.63,5.00,VWS V14.01,2013-04-28 13:25:00,
2013-04-28 09:30:00,54.5,52.5,30.10,NW,325,7.0,15.0,93,0.07,,RA,0.64,5.00,VWS V14.01,2013-04-28 13:30:00,
2013-04-28 09:35:00,54.1,52.1,30.10,NNW,336,6.0,13.0,93,0.08,,RA,0.65,12.00,VWS V14.01,2013-04-28 13:35:00,
2013-04-28 09:40:00,54.2,52.5,30.10,North,355,11.0,13.0,94,0.10,,-RA,0.67,16.00,VWS V14.01,2013-04-28 13:40:00,
2013-04-28 09:45:00,54.5,53.1,30.08,NNE,21,11.0,14.0,95,0.11,,-RA,0.68,19.00,VWS V14.01,2013-04-28 13:45:00,
2013-04-28 09:50:00,54.7,53.3,30.08,North,9,6.0,14.0,95,0.11,,-RA,0.68,9.00,VWS V14.01,2013-04-28 13:50:00,
2013-04-28 09:55:00,54.8,53.1,30.08,NNE,26,6.0,14.0,94,0.12,,-RA,0.69,19.00,VWS V14.01,2013-04-28 13:55:00,
2013-04-28 10:00:00,55.0,53.3,30.08,North,9,7.0,14.0,94,0.12,,-RA,0.69,12.00,VWS V14.01,2013-04-28 14:00:00,
2013-04-28 10:05:00,55.0,53.3,30.08,North,9,6.0,10.0,94,0.13,,-RA,0.73,19.00,VWS V14.01,2013-04-28 14:05:00,
2013-04-28 10:10:00,55.0,53.0,30.08,ENE,57,4.0,10.0,93,0.15,,-RA,0.75,21.00,VWS V14.01,2013-04-28 14:10:00,
2013-04-28 10:15:00,54.8,52.8,30.08,ENE,66,6.0,10.0,93,0.16,,-RA,0.76,18.00,VWS V14.01,2013-04-28 14:15:00,
2013-04-28 10:20:00,54.5,52.2,30.08,ENE,61,3.0,10.0,92,0.19,,-RA,0.79,23.00,VWS V14.01,2013-04-28 14:20:00,
2013-04-28 10:25:00,54.4,52.1,30.08,ENE,62,6.0,10.0,92,0.20,,-RA,0.80,23.00,VWS V14.01,2013-04-28 14:25:00,
2013-04-28 10:30:00,54.5,52.5,30.07,ENE,63,5.0,10.0,93,0.21,,-RA,0.81,19.00,VWS V14.01,2013-04-28 14:30:00,
2013-04-28 10:35:00,54.4,52.1,30.07,NE,53,1.0,4.0,92,0.19,,-RA,0.83,23.00,VWS V14.01,2013-04-28 14:35:00,
2013-04-28 10:40:00,54.4,52.1,30.07,NNE,28,5.0,5.0,92,0.20,,RA,0.84,26.00,VWS V14.01,2013-04-28 14:40:00,
2013-04-28 10:45:00,54.5,52.5,30.07,ENE,59,3.0,7.0,93,0.21,,RA,0.85,19.00,VWS V14.01,2013-04-28 14:45:00,
2013-04-28 10:50:00,54.5,52.2,30.07,NE,41,3.0,7.0,92,0.21,,RA,0.85,12.00,VWS V14.01,2013-04-28 14:50:00,
2013-04-28 10:55:00,54.7,52.4,30.07,NE,56,1.0,7.0,92,0.23,,RA,0.87,19.00,VWS V14.01,2013-04-28 14:55:00,
2013-04-28 11:00:00,54.7,52.4,30.07,North,10,3.0,7.0,92,0.27,,RA,0.91,23.00,VWS V14.01,2013-04-28 15:00:00,
2013-04-28 11:05:00,55.1,53.1,30.07,ENE,63,5.0,9.0,93,0.23,,-RA,0.93,30.00,VWS V14.01,2013-04-28 15:05:00,
2013-04-28 11:10:00,54.8,52.5,30.07,ENE,71,6.0,9.0,92,0.24,,-RA,0.94,25.00,VWS V14.01,2013-04-28 15:10:00,
2013-04-28 11:15:00,54.8,52.8,30.06,NE,53,3.0,9.0,93,0.25,,-RA,0.95,33.00,VWS V14.01,2013-04-28 15:15:00,
2013-04-28 11:20:00,54.5,52.2,30.06,East,86,5.0,9.0,92,0.25,,RA,0.95,26.00,VWS V14.01,2013-04-28 15:20:00,
2013-04-28 11:25:00,54.7,52.7,30.06,ENE,69,3.0,10.0,93,0.26,,RA,0.96,25.00,VWS V14.01,2013-04-28 15:25:00,
2013-04-28 11:30:00,54.5,52.5,30.06,ENE,67,3.0,10.0,93,0.26,,RA,0.96,19.00,VWS V14.01,2013-04-28 15:30:00,
2013-04-28 11:35:00,54.4,52.4,30.06,East,81,2.0,5.0,93,0.16,,RA,0.97,21.00,VWS V14.01,2013-04-28 15:35:00,
2013-04-28 11:40:00,54.2,52.2,30.06,ESE,102,1.0,6.0,93,0.17,,RA,0.98,21.00,VWS V14.01,2013-04-28 15:40:00,
2013-04-28 11:45:00,54.5,52.8,30.06,North,360,3.0,6.0,94,0.18,,RA,0.99,23.00,VWS V14.01,2013-04-28 15:45:00,
2013-04-28 11:50:00,54.4,52.7,30.06,East,98,3.0,7.0,94,0.20,,RA,1.01,23.00,VWS V14.01,2013-04-28 15:50:00,
2013-04-28 11:55:00,54.2,52.2,30.06,ENE,75,0.0,7.0,93,0.22,,RA,1.03,9.00,VWS V14.01,2013-04-28 15:55:00,
2013-04-28 12:00:00,54.5,52.8,30.07,NW,314,2.0,10.0,94,0.22,,RA,1.03,14.00,VWS V14.01,2013-04-28 16:00:00,
2013-04-28 12:05:00,54.5,53.1,30.07,North,360,2.0,5.0,95,0.11,,RA,1.03,19.00,VWS V14.01,2013-04-28 16:05:00,
2013-04-28 12:10:00,54.8,53.4,30.07,North,5,5.0,6.0,95,0.12,,RA,1.04,25.00,VWS V14.01,2013-04-28 16:10:00,
2013-04-28 12:15:00,54.8,53.4,30.06,NNE,26,6.0,6.0,95,0.14,,RA,1.06,19.00,VWS V14.01,2013-04-28 16:15:00,
2013-04-28 12:20:00,55.1,53.7,30.06,NE,35,6.0,8.0,95,0.15,,RA,1.07,16.00,VWS V14.01,2013-04-28 16:20:00,
2013-04-28 12:25:00,55.3,53.9,30.06,NE,38,4.0,11.0,95,0.17,, +RA,1.09,25.00,VWS V14.01,2013-04-28 16:25:00,
2013-04-28 12:30:00,55.3,53.9,30.05,NW,326,4.0,11.0,95,0.19,, +RA,1.11,12.00,VWS V14.01,2013-04-28 16:30:00,
2013-04-28 12:35:00,55.4,54.0,30.05,NNW,331,4.0,6.0,95,0.17,, +RA,1.13,12.00,VWS V14.01,2013-04-28 16:35:00,
2013-04-28 12:40:00,55.4,54.0,30.05,ENE,67,7.0,8.0,95,0.20,, +RA,1.16,53.00,VWS V14.01,2013-04-28 16:40:00,
2013-04-28 12:45:00,55.4,54.0,30.04,North,360,5.0,9.0,95,0.23,,RA,1.19,62.00,VWS V14.01,2013-04-28 16:45:00,
2013-04-28 12:50:00,55.3,53.9,30.04,NE,53,6.0,11.0,95,0.24,,RA,1.20,111.00,VWS V14.01,2013-04-28 16:50:00,
2013-04-28 12:55:00,55.3,53.9,30.04,ENE,65,3.0,11.0,95,0.25,,RA,1.21,65.00,VWS V14.01,2013-04-28 16:55:00,
2013-04-28 13:00:00,55.3,53.9,30.03,NE,40,4.0,11.0,95,0.25,,RA,1.21,86.00,VWS V14.01,2013-04-28 17:00:00,
2013-04-28 13:05:00,55.3,53.9,30.03,NNE,28,3.0,6.0,95,0.19,, +RA,1.22,63.00,VWS V14.01,2013-04-28 17:05:00,
2013-04-28 13:10:00,55.3,53.9,30.03,NE,55,2.0,6.0,95,0.19,, +RA,1.22,62.00,VWS V14.01,2013-04-28 17:10:00,
2013-04-28 13:15:00,55.1,53.7,30.03,NNE,32,1.0,6.0,95,0.20,, +RA,1.23,81.00,VWS V14.01,2013-04-28 17:15:00,
2013-04-28 13:20:00,55.3,53.9,30.03,North,9,3.0,6.0,95,0.20,, +RA,1.23,39.00,VWS V14.01,2013-04-28 17:20:00,
2013-04-28 13:25:00,55.4,54.0,30.03,North,355,4.0,6.0,95,0.20,,RA,1.23,42.00,VWS V14.01,2013-04-28 17:25:00,
2013-04-28 13:30:00,55.6,54.2,30.02,NNE,22,5.0,9.0,95,0.21,,RA,1.24,67.00,VWS V14.01,2013-04-28 17:30:00,
2013-04-28 13:35:00,55.7,54.3,30.02,NNE,30,6.0,9.0,95,0.15,,RA,1.26,37.00,VWS V14.01,2013-04-28 17:35:00,
2013-04-28 13:40:00,55.6,54.2,30.02,ENE,57,5.0,9.0,95,0.17,,RA,1.28,84.00,VWS V14.01,2013-04-28 17:40:00,
2013-04-28 13:45:00,55.7,54.0,30.02,NE,48,3.0,9.0,94,0.18,,RA,1.29,56.00,VWS V14.01,2013-04-28 17:45:00,
2013-04-28 13:50:00,55.6,53.9,30.02,NNE,24,7.0,9.0,94,0.18,,RA,1.29,54.00,VWS V14.01,2013-04-28 17:50:00,
2013-04-28 13:55:00,55.7,54.0,30.02,ENE,66,0.0,9.0,94,0.20,,RA,1.31,44.00,VWS V14.01,2013-04-28 17:55:00,
2013-04-28 14:00:00,55.6,53.9,30.02,ENE,65,5.0,9.0,94,0.20,,RA,1.31,46.00,VWS V14.01,2013-04-28 18:00:00,
2013-04-28 14:05:00,55.6,53.6,30.02,NE,53,6.0,10.0,93,0.12,,RA,1.33,47.00,VWS V14.01,2013-04-28 18:05:00,
2013-04-28 14:10:00,55.7,54.0,30.02,NE,51,1.0,10.0,94,0.14,,RA,1.35,32.00,VWS V14.01,2013-04-28 18:10:00,
2013-04-28 14:15:00,55.7,54.0,30.01,NE,55,2.0,10.0,94,0.15,,RA,1.36,30.00,VWS V14.01,2013-04-28 18:15:00,
2013-04-28 14:20:00,55.6,53.6,30.01,ENE,76,2.0,10.0,93,0.16,,RA,1.37,35.00,VWS V14.01,2013-04-28 18:20:00,
2013-04-28 14:25:00,55.7,53.7,30.01,ENE,74,3.0,10.0,93,0.17,,RA,1.38,56.00,VWS V14.01,2013-04-28 18:25:00,
2013-04-28 14:30:00,55.7,53.7,30.00,ENE,60,4.0,10.0,93,0.18,,RA,1.39,79.00,VWS V14.01,2013-04-28 18:30:00,
2013-04-28 14:35:00,56.0,54.3,30.00,NE,52,5.0,6.0,94,0.15,,RA,1.40,74.00,VWS V14.01,2013-04-28 18:35:00,
2013-04-28 14:40:00,56.0,54.3,30.00,North,360,2.0,6.0,94,0.15,,RA,1.40,67.00,VWS V14.01,2013-04-28 18:40:00,
2013-04-28 14:45:00,55.7,53.7,30.00,NE,49,3.0,6.0,93,0.16,,RA,1.41,54.00,VWS V14.01,2013-04-28 18:45:00,
2013-04-28 14:50:00,55.9,53.9,30.00,ENE,61,2.0,6.0,93,0.17,,RA,1.42,51.00,VWS V14.01,2013-04-28 18:50:00,
2013-04-28 14:55:00,55.9,53.9,30.00,NE,49,4.0,6.0,93,0.17,,RA,1.42,40.00,VWS V14.01,2013-04-28 18:55:00,
2013-04-28 15:00:00,55.9,53.9,30.00,ENE,63,4.0,6.0,93,0.19,,RA,1.44,49.00,VWS V14.01,2013-04-28 19:00:00,
2013-04-28 15:05:00,55.9,53.9,30.00,East,90,1.0,6.0,93,0.14,, +RA,1.45,39.00,VWS V14.01,2013-04-28 19:05:00,
2013-04-28 15:10:00,56.0,54.3,30.00,ENE,61,2.0,6.0,94,0.15,, +RA,1.46,35.00,VWS V14.01,2013-04-28 19:10:00,
2013-04-28 15:15:00,56.0,54.3,29.99,ENE,61,2.0,6.0,94,0.17,, +RA,1.48,28.00,VWS V14.01,2013-04-28 19:15:00,
2013-04-28 15:20:00,56.0,54.0,29.99,North,360,2.0,6.0,93,0.17,, +RA,1.48,21.00,VWS V14.01,2013-04-28 19:20:00,
2013-04-28 15:25:00,56.0,54.3,29.99,North,5,2.0,6.0,94,0.19,,RA,1.50,51.00,VWS V14.01,2013-04-28 19:25:00,
2013-04-28 15:30:00,56.2,54.5,29.99,NE,40,2.0,6.0,94,0.19,,RA,1.50,90.00,VWS V14.01,2013-04-28 19:30:00,
2013-04-28 15:35:00,56.3,54.6,29.99,ENE,67,3.0,6.0,94,0.11,,RA,1.50,63.00,VWS V14.01,2013-04-28 19:35:00,
2013-04-28 15:40:00,56.2,54.2,29.99,ENE,64,3.0,6.0,93,0.11,,RA,1.50,91.00,VWS V14.01,2013-04-28 19:40:00,
2013-04-28 15:45:00,56.2,54.2,29.99,ENE,61,3.0,6.0,93,0.11,,RA,1.50,120.00,VWS V14.01,2013-04-28 19:45:00,
2013-04-28 15:50:00,56.5,54.8,29.99,ENE,70,4.0,7.0,94,0.11,,RA,1.50,76.00,VWS V14.01,2013-04-28 19:50:00,
2013-04-28 15:55:00,56.3,54.3,29.99,ENE,74,4.0,7.0,93,0.11,,RA,1.50,79.00,VWS V14.01,2013-04-28 19:55:00,
2013-04-28 16:00:00,56.5,54.5,29.98,ENE,69,4.0,7.0,93,0.11,,RA,1.50,62.00,VWS V14.01,2013-04-28 20:00:00,
2013-04-28 16:05:00,56.6,54.9,29.98,ENE,57,5.0,6.0,94,0.06,,RA,1.50,58.00,VWS V14.01,2013-04-28 20:05:00,
2013-04-28 16:10:00,56.5,54.5,29.98,NE,53,5.0,7.0,93,0.06,,RA,1.50,54.00,VWS V14.01,2013-04-28 20:10:00,
2013-04-28 16:15:00,56.3,54.3,29.98,ENE,61,2.0,7.0,93,0.07,,RA,1.51,58.00,VWS V14.01,2013-04-28 20:15:00,
2013-04-28 16:20:00,56.5,54.5,29.98,NNE,33,5.0,7.0,93,0.07,,RA,1.51,42.00,VWS V14.01,2013-04-28 20:20:00,
2013-04-28 16:25:00,56.6,54.9,29.98,NE,38,6.0,7.0,94,0.08,,-RA,1.52,35.00,VWS V14.01,2013-04-28 20:25:00,
2013-04-28 16:29:00,56.5,54.5,29.97,ENE,69,3.0,7.0,93,0.08,,-RA,1.52,44.00,VWS V14.01,2013-04-28 20:29:00,
2013-04-28 16:30:00,56.2,54.5,29.99,NE,40,2.0,6.0,94,0.19,,CLR,1.50,83.00,VWS V14.01,2013-04-28 20:30:00,
2013-04-28 16:35:00,56.6,54.6,29.97,ENE,59,6.0,7.0,93,0.07,,-RA,1.57,40.00,VWS V14.01,2013-04-28 20:35:00,
2013-04-28 16:40:00,56.5,54.5,29.97,ENE,66,4.0,7.0,93,0.10,,-RA,1.60,35.00,VWS V14.01,2013-04-28 20:40:00,
2013-04-28 16:45:00,56.3,54.3,29.97,ENE,58,5.0,7.0,93,0.13,,-RA,1.63,33.00,VWS V14.01,2013-04-28 20:45:00,
2013-04-28 16:50:00,56.2,54.2,29.97,ENE,63,3.0,7.0,93,0.14,,-RA,1.64,60.00,VWS V14.01,2013-04-28 20:50:00,
2013-04-28 16:55:00,56.3,54.6,29.97,ENE,70,5.0,7.0,94,0.14,,-RA,1.64,40.00,VWS V14.01,2013-04-28 20:55:00,
2013-04-28 16:59:00,56.5,54.8,29.97,NE,51,3.0,7.0,94,0.14,,-RA,1.64,32.00,VWS V14.01,2013-04-28 20:59:00,
2013-04-28 17:00:00,56.5,54.5,29.98,ENE,69,2.0,7.0,93,0.11,,CLR,1.50,58.00,VWS V14.01,2013-04-28 21:00:00,
2013-04-28 17:04:00,56.5,54.8,29.97,NE,51,4.0,7.0,94,0.16,,RA,1.66,51.00,VWS V14.01,2013-04-28 21:04:00,
2013-04-28 17:09:00,56.5,54.8,29.97,ENE,68,5.0,7.0,94,0.16,,RA,1.66,33.00,VWS V14.01,2013-04-28 21:09:00,
2013-04-28 17:14:00,56.7,55.3,29.96,East,81,7.0,7.0,95,0.19,,RA,1.69,49.00,VWS V14.01,2013-04-28 21:14:00,
2013-04-28 17:19:00,56.3,54.3,29.96,ENE,69,3.0,7.0,93,0.21,,RA,1.71,33.00,VWS V14.01,2013-04-28 21:19:00,
2013-04-28 17:24:00,56.3,54.6,29.96,NE,37,3.0,7.0,94,0.22,,RA,1.72,32.00,VWS V14.01,2013-04-28 21:24:00,
2013-04-28 17:29:00,56.3,54.6,29.96,NE,44,4.0,7.0,94,0.24,,RA,1.74,25.00,VWS V14.01,2013-04-28 21:29:00,
2013-04-28 17:30:00,56.5,54.5,29.97,ENE,63,3.0,7.0,93,0.08,,CLR,1.52,42.00,VWS V14.01,2013-04-28 21:30:00,
2013-04-28 17:34:00,56.5,55.1,29.97,NE,44,3.0,4.0,95,0.22,,RA,1.74,23.00,VWS V14.01,2013-04-28 21:34:00,
2013-04-28 17:39:00,56.6,55.2,29.97,NE,52,6.0,7.0,95,0.22,,RA,1.74,40.00,VWS V14.01,2013-04-28 21:39:00,
2013-04-28 17:44:00,56.6,54.9,29.97,ENE,58,4.0,7.0,94,0.23,,RA,1.75,19.00,VWS V14.01,2013-04-28 21:44:00,
2013-04-28 17:49:00,56.7,55.0,29.97,ENE,65,4.0,7.0,94,0.26,,RA,1.78,21.00,VWS V14.01,2013-04-28 21:49:00,
2013-04-28 17:54:00,56.7,55.0,29.97,NE,51,4.0,7.0,94,0.27,,RA,1.79,23.00,VWS V14.01,2013-04-28 21:54:00,
2013-04-28 17:59:00,56.7,55.0,29.97,North,11,3.0,7.0,94,0.28,,RA,1.80,11.00,VWS V14.01,2013-04-28 21:59:00,
2013-04-28 18:00:00,56.5,54.8,29.97,NE,35,6.0,7.0,94,0.15,,CLR,1.65,35.00,VWS V14.01,2013-04-28 22:00:00,
2013-04-28 18:04:00,56.7,55.0,29.97,NNE,26,3.0,10.0,94,0.17,,RA,1.82,19.00,VWS V14.01,2013-04-28 22:04:00,
2013-04-28 18:09:00,56.9,55.2,29.97,NNE,20,3.0,10.0,94,0.17,,RA,1.82,18.00,VWS V14.01,2013-04-28 22:09:00,
2013-04-28 18:14:00,56.9,55.2,29.97,NW,310,8.0,14.0,94,0.18,,RA,1.83,7.00,VWS V14.01,2013-04-28 22:14:00,
2013-04-28 18:19:00,56.7,55.0,29.99,West,273,1.0,14.0,94,0.21,,RA,1.86,11.00,VWS V14.01,2013-04-28 22:19:00,
2013-04-28 18:24:00,56.6,54.9,29.99,WNW,288,6.0,14.0,94,0.23,,RA,1.88,19.00,VWS V14.01,2013-04-28 22:24:00,
2013-04-28 18:29:00,56.9,55.5,29.99,WNW,301,6.0,14.0,95,0.25,,RA,1.90,14.00,VWS V14.01,2013-04-28 22:29:00,
2013-04-28 18:30:00,56.3,54.6,29.97,NE,44,0.0,7.0,94,0.24,,CLR,1.74,25.00,VWS V14.01,2013-04-28 22:30:00,
2013-04-28 18:34:00,56.7,55.3,30.00,NW,319,2.0,7.0,95,0.18,,RA,1.92,19.00,VWS V14.01,2013-04-28 22:34:00,
2013-04-28 18:39:00,56.6,55.2,30.00,NW,307,0.0,7.0,95,0.18,,RA,1.92,18.00,VWS V14.01,2013-04-28 22:39:00,
2013-04-28 18:44:00,56.6,55.2,30.00,NW,308,0.0,7.0,95,0.18,,RA,1.92,16.00,VWS V14.01,2013-04-28 22:44:00,
2013-04-28 18:49:00,56.6,55.2,29.99,NW,308,0.0,7.0,95,0.18,,RA,1.92,21.00,VWS V14.01,2013-04-28 22:49:00,
2013-04-28 18:54:00,56.7,55.3,29.99,NNE,12,0.0,7.0,95,0.18,,RA,1.92,25.00,VWS V14.01,2013-04-28 22:54:00,
2013-04-28 18:59:00,57.2,56.1,29.99,NE,41,7.0,9.0,96,0.18,,RA,1.92,28.00,VWS V14.01,2013-04-28 22:59:00,
2013-04-28 19:00:00,56.7,55.0,29.97,NNE,13,6.0,7.0,94,0.28,,CLR,1.80,12.00,VWS V14.01,2013-04-28 23:00:00,
2013-04-28 19:04:00,57.6,56.5,29.96,ENE,57,3.0,8.0,96,0.12,,RA,1.92,32.00,VWS V14.01,2013-04-28 23:04:00,
2013-04-28 19:09:00,57.5,56.1,29.96,ENE,57,0.0,8.0,95,0.12,,RA,1.92,32.00,VWS V14.01,2013-04-28 23:09:00,
2013-04-28 19:14:00,57.5,56.1,29.96,ENE,77,0.0,8.0,95,0.12,,RA,1.92,32.00,VWS V14.01,2013-04-28 23:14:00,
2013-04-28 19:19:00,57.5,55.8,29.97,ENE,77,2.0,8.0,94,0.12,,RA,1.92,30.00,VWS V14.01,2013-04-28 23:19:00,
2013-04-28 19:24:00,57.5,55.8,29.97,ENE,66,4.0,8.0,94,0.12,,-RA,1.92,26.00,VWS V14.01,2013-04-28 23:24:00,
2013-04-28 19:29:00,57.5,55.5,29.97,NE,51,2.0,8.0,93,0.12,,-RA,1.92,21.00,VWS V14.01,2013-04-28 23:29:00,
2013-04-28 19:30:00,56.9,55.5,30.00,West,275,4.0,14.0,95,0.25,,CLR,1.90,16.00,VWS V14.01,2013-04-28 23:30:00,
2013-04-28 19:34:00,57.5,55.2,29.97,NE,53,0.0,4.0,92,0.02,,-RA,1.92,19.00,VWS V14.01,2013-04-28 23:34:00,
2013-04-28 19:39:00,57.8,55.8,29.97,NE,53,1.0,4.0,93,0.02,,-RA,1.92,18.00,VWS V14.01,2013-04-28 23:39:00,
2013-04-28 19:44:00,58.0,56.0,29.97,NE,56,3.0,6.0,93,0.02,,-RA,1.92,18.00,VWS V14.01,2013-04-28 23:44:00,
2013-04-28 19:49:00,58.0,56.0,29.95,ENE,61,5.0,7.0,93,0.02,,-RA,1.92,14.00,VWS V14.01,2013-04-28 23:49:00,
2013-04-28 19:54:00,57.8,55.8,29.95,ENE,70,5.0,7.0,93,0.02,,-RA,1.92,12.00,VWS V14.01,2013-04-28 23:54:00,
2013-04-28 19:59:00,58.0,56.0,29.95,North,360,5.0,7.0,93,0.02,,-RA,1.92,9.00,VWS V14.01,2013-04-28 23:59:00,
2013-04-28 20:00:00,57.2,56.1,29.96,NE,40,4.0,9.0,96,0.18,,CLR,1.92,28.00,VWS V14.01,2013-04-29 00:00:00,
2013-04-28 20:04:00,58.1,56.1,29.94,NNE,33,6.0,8.0,93,0.01,,OVC100,1.93,0.00,VWS V14.01,2013-04-29 00:04:00,
2013-04-28 20:09:00,58.1,56.1,29.94,NE,48,8.0,9.0,93,0.01,,OVC100,1.93,0.00,VWS V14.01,2013-04-29 00:09:00,
2013-04-28 20:14:00,58.3,56.3,29.94,NE,51,6.0,9.0,93,0.01,,OVC100,1.93,0.00,VWS V14.01,2013-04-29 00:14:00,
2013-04-28 20:19:00,58.1,56.1,29.94,NE,48,5.0,9.0,93,0.01,,OVC100,1.93,0.00,VWS V14.01,2013-04-29 00:19:00,
2013-04-28 20:24:00,58.1,56.1,29.94,NNE,27,2.0,11.0,93,0.01,,OVC100,1.93,0.00,VWS V14.01,2013-04-29 00:24:00,
2013-04-28 20:29:00,58.0,55.7,29.94,ENE,61,5.0,11.0,92,0.01,,OVC100,1.93,0.00,VWS V14.01,2013-04-29 00:29:00,
2013-04-28 20:30:00,57.5,55.5,29.97,NE,51,2.0,8.0,93,0.12,,CLR,1.92,19.00,VWS V14.01,2013-04-29 00:30:00,
2013-04-28 20:34:00,57.8,55.5,29.94,East,86,5.0,6.0,92,0.01,,OVC100,1.93,0.00,VWS V14.01,2013-04-29 00:34:00,
2013-04-28 20:39:00,57.6,55.3,29.94,East,80,3.0,6.0,92,0.01,,OVC100,1.93,0.00,VWS V14.01,2013-04-29 00:39:00,
2013-04-28 20:44:00,57.8,55.8,29.94,ESE,107,4.0,6.0,93,0.01,,OVC100,1.93,0.00,VWS V14.01,2013-04-29 00:44:00,
2013-04-28 20:49:00,57.5,55.2,29.94,ESE,110,0.0,6.0,92,0.01,,OVC100,1.93,0.00,VWS V14.01,2013-04-29 00:49:00,
2013-04-28 20:54:00,57.5,55.2,29.94,ENE,59,1.0,6.0,92,0.01,,OVC100,1.93,0.00,VWS V14.01,2013-04-29 00:54:00,
2013-04-28 20:59:00,57.3,54.7,29.94,NNE,16,0.0,6.0,91,0.01,,OVC100,1.93,0.00,VWS V14.01,2013-04-29 00:59:00,
2013-04-28 21:00:00,58.1,56.1,29.94,NE,38,5.0,7.0,93,0.02,,CLR,1.92,7.00,VWS V14.01,2013-04-29 01:00:00,
2013-04-28 21:04:00,57.3,55.0,29.95,NE,41,0.0,1.0,92,0.01,,OVC065,1.93,0.00,VWS V14.01,2013-04-29 01:04:00,
2013-04-28 21:09:00,57.3,54.7,29.95,NE,42,0.0,2.0,91,0.01,,OVC065,1.93,0.00,VWS V14.01,2013-04-29 01:09:00,
2013-04-28 21:14:00,57.3,55.3,29.95,NE,42,0.0,2.0,93,0.01,,OVC065,1.93,0.00,VWS V14.01,2013-04-29 01:14:00,
2013-04-28 21:19:00,57.3,55.3,29.94,NE,42,2.0,3.0,93,0.01,,OVC065,1.93,0.00,VWS V14.01,2013-04-29 01:19:00,
2013-04-28 21:24:00,57.2,54.6,29.94,ENE,57,1.0,4.0,91,0.01,,OVC065,1.93,0.00,VWS V14.01,2013-04-29 01:24:00,
2013-04-28 21:29:00,57.3,54.4,29.94,ENE,57,0.0,4.0,90,0.01,,OVC065,1.93,0.00,VWS V14.01,2013-04-29 01:29:00,
2013-04-28 21:30:00,58.0,55.7,29.94,North,360,2.0,11.0,92,0.01,,CLR,1.93,0.00,VWS V14.01,2013-04-29 01:30:00,
2013-04-28 21:34:00,57.5,54.3,29.94,ENE,57,0.0,4.0,89,0.00,,OVC065,1.93,0.00,VWS V14.01,2013-04-29 01:34:00,
2013-04-28 21:39:00,57.5,54.6,29.94,ENE,57,1.0,4.0,90,0.00,,OVC065,1.93,0.00,VWS V14.01,2013-04-29 01:39:00,
2013-04-28 21:44:00,57.6,54.7,29.94,ENE,57,0.0,4.0,90,0.00,,OVC065,1.93,0.00,VWS V14.01,2013-04-29 01:44:00,
2013-04-28 21:49:00,57.8,54.9,29.95,ENE,61,2.0,4.0,90,0.00,,OVC065,1.93,0.00,VWS V14.01,2013-04-29 01:49:00,
2013-04-28 21:54:00,57.6,54.4,29.95,ENE,61,0.0,4.0,89,0.00,,OVC065,1.93,0.00,VWS V14.01,2013-04-29 01:54:00,
2013-04-28 21:59:00,57.6,54.7,29.95,ENE,61,0.0,4.0,90,0.00,,OVC065,1.93,0.00,VWS V14.01,2013-04-29 01:59:00,
2013-04-28 22:00:00,57.3,54.7,29.95,NNE,32,0.0,6.0,91,0.01,,CLR,1.93,0.00,VWS V14.01,2013-04-29 02:00:00,
2013-04-28 22:04:00,57.5,54.3,29.95,ENE,61,0.0,1.0,89,0.00,,BKN110,1.93,0.00,VWS V14.01,2013-04-29 02:04:00,
2013-04-28 22:09:00,57.3,54.4,29.95,ENE,61,0.0,1.0,90,0.00,,BKN110,1.93,0.00,VWS V14.01,2013-04-29 02:09:00,
2013-04-28 22:14:00,57.3,55.0,29.95,ENE,67,0.0,3.0,92,0.00,,BKN110,1.93,0.00,VWS V14.01,2013-04-29 02:14:00,
2013-04-28 22:19:00,57.3,55.0,29.95,East,84,1.0,4.0,92,0.00,,BKN110,1.93,0.00,VWS V14.01,2013-04-29 02:19:00,
2013-04-28 22:24:00,57.3,55.0,29.95,East,84,1.0,4.0,92,0.00,,BKN110,1.93,0.00,VWS V14.01,2013-04-29 02:24:00,
2013-04-28 22:29:00,57.3,54.7,29.95,East,84,2.0,4.0,91,0.00,,BKN110,1.93,0.00,VWS V14.01,2013-04-29 02:29:00,
2013-04-28 22:30:00,57.3,54.4,29.94,ENE,57,1.0,4.0,90,0.01,,CLR,1.93,0.00,VWS V14.01,2013-04-29 02:30:00,
2013-04-28 22:34:00,57.2,54.9,29.95,East,84,1.0,1.0,92,0.00,,BKN110,1.93,0.00,VWS V14.01,2013-04-29 02:34:00,
2013-04-28 22:39:00,57.0,54.7,29.95,SE,126,0.0,3.0,92,0.00,,BKN110,1.93,0.00,VWS V14.01,2013-04-29 02:39:00,
2013-04-28 22:44:00,56.9,54.9,29.95,SE,126,0.0,3.0,93,0.00,,BKN110,1.93,0.00,VWS V14.01,2013-04-29 02:44:00,
2013-04-28 22:49:00,56.9,54.9,29.97,SE,126,0.0,3.0,93,0.00,,BKN110,1.93,0.00,VWS V14.01,2013-04-29 02:49:00,
2013-04-28 22:54:00,56.7,54.7,29.97,SE,126,0.0,3.0,93,0.00,,BKN110,1.93,0.00,VWS V14.01,2013-04-29 02:54:00,
2013-04-28 22:59:00,56.6,54.6,29.97,SE,126,0.0,3.0,93,0.00,,BKN110,1.93,0.00,VWS V14.01,2013-04-29 02:59:00,
2013-04-28 23:00:00,57.5,54.6,29.95,ENE,61,0.0,4.0,90,0.00,,CLR,1.93,0.00,VWS V14.01,2013-04-29 03:00:00,
2013-04-28 23:04:00,56.5,54.5,29.96,SE,126,0.0,0.0,93,0.00,,-RA,0.00,0.00,VWS V14.01,2013-04-29 03:04:00,
2013-04-28 23:09:00,56.5,54.5,29.96,SE,126,0.0,0.0,93,0.00,,-RA,0.00,0.00,VWS V14.01,2013-04-29 03:09:00,
2013-04-28 23:14:00,56.5,54.8,29.96,SE,126,0.0,0.0,94,0.01,,-RA,0.01,0.00,VWS V14.01,2013-04-29 03:14:00,
2013-04-28 23:19:00,56.3,54.6,29.95,SE,126,0.0,0.0,94,0.01,,-RA,0.01,0.00,VWS V14.01,2013-04-29 03:19:00,
2013-04-28 23:24:00,56.5,54.5,29.95,SE,126,0.0,3.0,93,0.01,,-RA,0.01,0.00,VWS V14.01,2013-04-29 03:24:00,
2013-04-28 23:29:00,56.6,54.6,29.95,SE,125,2.0,4.0,93,0.01,,-RA,0.01,0.00,VWS V14.01,2013-04-29 03:29:00,
2013-04-28 23:30:00,57.3,54.7,29.95,East,84,0.0,4.0,91,0.00,,CLR,1.93,0.00,VWS V14.01,2013-04-29 03:30:00,
2013-04-28 23:34:00,56.7,54.1,29.94,SE,125,0.0,3.0,91,0.01,,-RA,0.01,0.00,VWS V14.01,2013-04-29 03:34:00,
2013-04-28 23:39:00,56.9,54.3,29.94,SE,125,0.0,3.0,91,0.01,,-RA,0.01,0.00,VWS V14.01,2013-04-29 03:39:00,
2013-04-28 23:44:00,57.0,54.7,29.94,SE,125,0.0,3.0,92,0.01,,-RA,0.01,0.00,VWS V14.01,2013-04-29 03:44:00,
2013-04-28 23:49:00,56.9,54.3,29.94,SE,125,1.0,3.0,91,0.01,,-RA,0.01,0.00,VWS V14.01,2013-04-29 03:49:00,
2013-04-28 23:54:00,56.7,53.8,29.94,East,96,1.0,5.0,90,0.01,,-RA,0.01,0.00,VWS V14.01,2013-04-29 03:54:00,
2013-04-28 23:59:00,56.7,53.8,29.94,East,96,0.0,5.0,90,0.01,,-RA,0.01,0.00,VWS V14.01,2013-04-29 03:59:00,